sensor_id;sensor_type;location;lat;lon;timestamp;pressure;altitude;pressure_sealevel;temperature;humidity
49122;BME280;35529;44.342;25.944;2022-07-29T00:01:58;100747.00;;;23.56;65.19
49122;BME280;35529;44.342;25.944;2022-07-29T00:04:24;100750.78;;;23.60;65.16
49122;BME280;35529;44.342;25.944;2022-07-29T00:06:50;100750.19;;;23.68;64.54
49122;BME280;35529;44.342;25.944;2022-07-29T00:09:16;100747.44;;;23.79;64.51
49122;BME280;35529;44.342;25.944;2022-07-29T00:11:42;100746.09;;;23.76;64.22
49122;BME280;35529;44.342;25.944;2022-07-29T00:14:09;100750.75;;;23.70;64.40
49122;BME280;35529;44.342;25.944;2022-07-29T00:16:35;100748.91;;;23.60;64.60
49122;BME280;35529;44.342;25.944;2022-07-29T00:19:01;100749.47;;;23.52;64.99
49122;BME280;35529;44.342;25.944;2022-07-29T00:21:27;100755.72;;;23.42;65.16
49122;BME280;35529;44.342;25.944;2022-07-29T00:23:54;100760.34;;;23.42;65.48
49122;BME280;35529;44.342;25.944;2022-07-29T00:26:20;100756.84;;;23.36;65.47
49122;BME280;35529;44.342;25.944;2022-07-29T00:28:46;100757.13;;;23.30;65.72
49122;BME280;35529;44.342;25.944;2022-07-29T00:31:12;100763.91;;;23.32;65.65
49122;BME280;35529;44.342;25.944;2022-07-29T00:33:38;100771.19;;;23.32;65.69
49122;BME280;35529;44.342;25.944;2022-07-29T00:36:04;100771.47;;;23.30;65.69
49122;BME280;35529;44.342;25.944;2022-07-29T00:38:30;100768.75;;;23.30;65.79
49122;BME280;35529;44.342;25.944;2022-07-29T00:40:57;100768.78;;;23.25;66.00
49122;BME280;35529;44.342;25.944;2022-07-29T00:43:23;100765.00;;;23.26;65.91
49122;BME280;35529;44.342;25.944;2022-07-29T00:45:49;100776.63;;;23.32;65.84
49122;BME280;35529;44.342;25.944;2022-07-29T00:48:15;100773.38;;;23.30;65.69
49122;BME280;35529;44.342;25.944;2022-07-29T00:50:41;100766.63;;;23.27;65.87
49122;BME280;35529;44.342;25.944;2022-07-29T00:53:07;100776.09;;;23.24;65.94
49122;BME280;35529;44.342;25.944;2022-07-29T00:55:34;100765.78;;;23.26;65.96
49122;BME280;35529;44.342;25.944;2022-07-29T00:58:00;100757.13;;;23.30;65.91
49122;BME280;35529;44.342;25.944;2022-07-29T01:00:27;100768.75;;;23.30;65.83
49122;BME280;35529;44.342;25.944;2022-07-29T01:02:54;100772.31;;;23.25;66.09
49122;BME280;35529;44.342;25.944;2022-07-29T01:05:21;100770.41;;;23.21;66.24
49122;BME280;35529;44.342;25.944;2022-07-29T01:07:48;100772.59;;;23.14;66.52
49122;BME280;35529;44.342;25.944;2022-07-29T01:10:15;100772.84;;;23.07;66.76
49122;BME280;35529;44.342;25.944;2022-07-29T01:12:42;100762.03;;;23.02;67.05
49122;BME280;35529;44.342;25.944;2022-07-29T01:15:09;100769.88;;;22.93;67.49
49122;BME280;35529;44.342;25.944;2022-07-29T01:17:43;100768.00;;;22.88;67.66
49122;BME280;35529;44.342;25.944;2022-07-29T01:25:30;100762.81;;;22.97;67.66
49122;BME280;35529;44.342;25.944;2022-07-29T01:30:29;100757.41;;;23.13;67.12
49122;BME280;35529;44.342;25.944;2022-07-29T01:32:58;100759.03;;;23.08;67.28
49122;BME280;35529;44.342;25.944;2022-07-29T01:35:26;100759.56;;;23.10;67.26
49122;BME280;35529;44.342;25.944;2022-07-29T01:38:00;100746.84;;;23.06;67.35
49122;BME280;35529;44.342;25.944;2022-07-29T01:40:34;100750.34;;;23.06;67.46
49122;BME280;35529;44.342;25.944;2022-07-29T01:43:03;100747.91;;;23.10;67.51
49122;BME280;35529;44.342;25.944;2022-07-29T01:48:21;100736.56;;;23.13;67.53
49122;BME280;35529;44.342;25.944;2022-07-29T01:53:42;100743.03;;;23.27;67.00
49122;BME280;35529;44.342;25.944;2022-07-29T01:56:10;100740.88;;;23.30;67.09
49122;BME280;35529;44.342;25.944;2022-07-29T01:58:39;100744.38;;;23.30;66.90
49122;BME280;35529;44.342;25.944;2022-07-29T02:01:06;100738.69;;;23.21;67.27
49122;BME280;35529;44.342;25.944;2022-07-29T02:03:34;100735.19;;;23.16;67.62
49122;BME280;35529;44.342;25.944;2022-07-29T02:06:01;100748.22;;;23.14;67.70
49122;BME280;35529;44.342;25.944;2022-07-29T02:08:29;100741.69;;;23.15;67.63
49122;BME280;35529;44.342;25.944;2022-07-29T02:10:56;100749.81;;;23.15;67.70
49122;BME280;35529;44.342;25.944;2022-07-29T02:13:23;100746.31;;;23.14;67.67
49122;BME280;35529;44.342;25.944;2022-07-29T02:15:51;100753.09;;;23.17;67.69
49122;BME280;35529;44.342;25.944;2022-07-29T02:18:19;100750.38;;;23.17;67.79
49122;BME280;35529;44.342;25.944;2022-07-29T02:20:47;100750.09;;;23.18;67.63
49122;BME280;35529;44.342;25.944;2022-07-29T02:23:14;100753.88;;;23.17;67.76
49122;BME280;35529;44.342;25.944;2022-07-29T02:25:42;100753.88;;;23.17;67.81
49122;BME280;35529;44.342;25.944;2022-07-29T02:28:09;100754.72;;;23.18;67.71
49122;BME280;35529;44.342;25.944;2022-07-29T02:30:36;100750.38;;;23.17;68.00
49122;BME280;35529;44.342;25.944;2022-07-29T02:33:04;100758.75;;;23.10;67.99
49122;BME280;35529;44.342;25.944;2022-07-29T02:35:31;100753.06;;;23.06;68.24
49122;BME280;35529;44.342;25.944;2022-07-29T02:37:58;100748.75;;;23.16;67.99
49122;BME280;35529;44.342;25.944;2022-07-29T02:40:43;100750.09;;;23.18;67.89
49122;BME280;35529;44.342;25.944;2022-07-29T02:43:09;100741.97;;;23.23;67.58
49122;BME280;35529;44.342;25.944;2022-07-29T02:45:36;100744.09;;;23.42;67.10
49122;BME280;35529;44.342;25.944;2022-07-29T02:48:05;100743.81;;;23.38;67.18
49122;BME280;35529;44.342;25.944;2022-07-29T02:50:37;100742.22;;;23.27;67.50
49122;BME280;35529;44.342;25.944;2022-07-29T02:53:05;100746.31;;;23.19;67.74
49122;BME280;35529;44.342;25.944;2022-07-29T02:55:51;100742.81;;;23.19;67.98
49122;BME280;35529;44.342;25.944;2022-07-29T02:58:27;100740.88;;;23.24;67.86
49122;BME280;35529;44.342;25.944;2022-07-29T03:00:59;100742.47;;;23.31;67.65
49122;BME280;35529;44.342;25.944;2022-07-29T03:03:29;100751.94;;;23.38;67.19
49122;BME280;35529;44.342;25.944;2022-07-29T03:05:57;100747.09;;;23.35;67.47
49122;BME280;35529;44.342;25.944;2022-07-29T03:08:25;100755.22;;;23.30;67.34
49122;BME280;35529;44.342;25.944;2022-07-29T03:10:52;100755.50;;;23.23;67.67
49122;BME280;35529;44.342;25.944;2022-07-29T03:13:19;100753.09;;;23.17;68.07
49122;BME280;35529;44.342;25.944;2022-07-29T03:15:45;100755.78;;;23.17;68.08
49122;BME280;35529;44.342;25.944;2022-07-29T03:18:13;100767.97;;;23.19;67.98
49122;BME280;35529;44.342;25.944;2022-07-29T03:20:40;100754.97;;;23.21;67.94
49122;BME280;35529;44.342;25.944;2022-07-29T03:23:07;100752.25;;;23.21;67.89
49122;BME280;35529;44.342;25.944;2022-07-29T03:25:33;100763.91;;;23.27;67.71
49122;BME280;35529;44.342;25.944;2022-07-29T03:28:00;100768.50;;;23.32;67.35
49122;BME280;35529;44.342;25.944;2022-07-29T03:30:26;100770.94;;;23.28;67.29
49122;BME280;35529;44.342;25.944;2022-07-29T03:32:52;100768.22;;;23.28;67.55
49122;BME280;35529;44.342;25.944;2022-07-29T03:35:19;100763.34;;;23.30;67.53
49122;BME280;35529;44.342;25.944;2022-07-29T03:37:45;100772.03;;;23.32;67.58
49122;BME280;35529;44.342;25.944;2022-07-29T03:40:13;100770.91;;;23.43;67.11
49122;BME280;35529;44.342;25.944;2022-07-29T03:42:40;100775.72;;;23.57;66.80
49122;BME280;35529;44.342;25.944;2022-07-29T03:45:09;100781.41;;;23.66;66.59
49122;BME280;35529;44.342;25.944;2022-07-29T03:47:37;100775.91;;;23.76;66.09
49122;BME280;35529;44.342;25.944;2022-07-29T03:50:05;100783.47;;;23.84;65.75
49122;BME280;35529;44.342;25.944;2022-07-29T03:52:32;100781.31;;;23.86;65.63
49122;BME280;35529;44.342;25.944;2022-07-29T03:54:58;100787.53;;;23.87;65.53
49122;BME280;35529;44.342;25.944;2022-07-29T03:57:25;100784.88;;;23.82;65.65
49122;BME280;35529;44.342;25.944;2022-07-29T03:59:53;100789.19;;;23.83;65.80
49122;BME280;35529;44.342;25.944;2022-07-29T04:02:20;100791.88;;;23.93;65.46
49122;BME280;35529;44.342;25.944;2022-07-29T04:04:46;100788.88;;;24.00;65.25
49122;BME280;35529;44.342;25.944;2022-07-29T04:07:13;100793.69;;;24.13;65.05
49122;BME280;35529;44.342;25.944;2022-07-29T04:09:39;100789.00;;;24.24;64.44
49122;BME280;35529;44.342;25.944;2022-07-29T04:12:06;100785.97;;;24.31;64.33
49122;BME280;35529;44.342;25.944;2022-07-29T04:14:32;100787.59;;;24.32;64.27
49122;BME280;35529;44.342;25.944;2022-07-29T04:16:59;100796.81;;;24.36;64.16
49122;BME280;35529;44.342;25.944;2022-07-29T04:19:25;100787.53;;;24.42;63.88
49122;BME280;35529;44.342;25.944;2022-07-29T04:21:51;100778.84;;;24.40;63.86
49122;BME280;35529;44.342;25.944;2022-07-29T04:24:18;100783.72;;;24.43;63.62
49122;BME280;35529;44.342;25.944;2022-07-29T04:26:47;100783.09;;;24.51;63.32
49122;BME280;35529;44.342;25.944;2022-07-29T04:29:13;100786.66;;;24.52;63.41
49122;BME280;35529;44.342;25.944;2022-07-29T04:31:40;100789.88;;;24.54;63.24
49122;BME280;35529;44.342;25.944;2022-07-29T04:34:06;100787.66;;;24.66;63.00
49122;BME280;35529;44.342;25.944;2022-07-29T04:36:32;100796.03;;;24.70;62.66
49122;BME280;35529;44.342;25.944;2022-07-29T04:38:58;100789.22;;;24.72;62.64
49122;BME280;35529;44.342;25.944;2022-07-29T04:41:25;100791.13;;;24.72;62.67
49122;BME280;35529;44.342;25.944;2022-07-29T04:43:51;100796.56;;;24.72;62.65
49122;BME280;35529;44.342;25.944;2022-07-29T04:46:17;100792.69;;;24.78;62.51
49122;BME280;35529;44.342;25.944;2022-07-29T04:48:44;100789.06;;;24.93;61.91
49122;BME280;35529;44.342;25.944;2022-07-29T04:51:11;100797.69;;;25.00;61.74
49122;BME280;35529;44.342;25.944;2022-07-29T04:53:37;100800.34;;;25.05;61.44
49122;BME280;35529;44.342;25.944;2022-07-29T04:56:03;100796.25;;;25.08;61.20
49122;BME280;35529;44.342;25.944;2022-07-29T04:58:29;100795.44;;;25.07;61.23
49122;BME280;35529;44.342;25.944;2022-07-29T05:00:55;100791.44;;;25.00;61.29
49122;BME280;35529;44.342;25.944;2022-07-29T05:03:21;100798.72;;;25.04;61.21
49122;BME280;35529;44.342;25.944;2022-07-29T05:05:47;100808.22;;;25.07;61.35
49122;BME280;35529;44.342;25.944;2022-07-29T05:08:14;100808.13;;;25.17;60.94
49122;BME280;35529;44.342;25.944;2022-07-29T05:10:40;100804.25;;;25.23;60.75
49122;BME280;35529;44.342;25.944;2022-07-29T05:13:06;100802.25;;;25.34;60.40
49122;BME280;35529;44.342;25.944;2022-07-29T05:15:33;100799.69;;;25.48;59.92
49122;BME280;35529;44.342;25.944;2022-07-29T05:18:00;100801.47;;;25.58;59.61
49122;BME280;35529;44.342;25.944;2022-07-29T05:20:26;100806.09;;;25.82;58.99
49122;BME280;35529;44.342;25.944;2022-07-29T05:22:55;100804.84;;;25.93;58.22
49122;BME280;35529;44.342;25.944;2022-07-29T05:25:21;100811.75;;;26.09;57.85
49122;BME280;35529;44.342;25.944;2022-07-29T05:27:47;100805.56;;;26.23;57.01
49122;BME280;35529;44.342;25.944;2022-07-29T05:30:13;100817.69;;;26.31;56.83
49122;BME280;35529;44.342;25.944;2022-07-29T05:32:40;100816.22;;;26.38;56.70
49122;BME280;35529;44.342;25.944;2022-07-29T05:35:06;100810.09;;;26.47;56.22
49122;BME280;35529;44.342;25.944;2022-07-29T05:37:32;100815.41;;;26.57;55.84
49122;BME280;35529;44.342;25.944;2022-07-29T05:39:59;100817.59;;;26.55;55.99
49122;BME280;35529;44.342;25.944;2022-07-29T05:42:25;100819.81;;;26.72;55.30
49122;BME280;35529;44.342;25.944;2022-07-29T05:44:51;100828.44;;;26.79;55.00
49122;BME280;35529;44.342;25.944;2022-07-29T05:47:17;100830.56;;;26.82;54.83
49122;BME280;35529;44.342;25.944;2022-07-29T05:49:44;100830.97;;;26.89;54.47
49122;BME280;35529;44.342;25.944;2022-07-29T05:52:11;100821.41;;;26.92;54.30
49122;BME280;35529;44.342;25.944;2022-07-29T05:54:37;100823.34;;;27.05;54.04
49122;BME280;35529;44.342;25.944;2022-07-29T05:57:03;100822.34;;;27.15;54.07
49122;BME280;35529;44.342;25.944;2022-07-29T05:59:30;100822.66;;;27.14;53.75
49122;BME280;35529;44.342;25.944;2022-07-29T06:01:57;100826.69;;;27.16;53.68
49122;BME280;35529;44.342;25.944;2022-07-29T06:04:23;100830.34;;;27.25;53.07
49122;BME280;35529;44.342;25.944;2022-07-29T06:06:49;100826.63;;;27.35;53.10
49122;BME280;35529;44.342;25.944;2022-07-29T06:09:15;100829.81;;;27.42;52.56
49122;BME280;35529;44.342;25.944;2022-07-29T06:11:41;100825.50;;;27.22;53.15
49122;BME280;35529;44.342;25.944;2022-07-29T06:14:08;100815.41;;;27.09;53.03
49122;BME280;35529;44.342;25.944;2022-07-29T06:16:34;100815.81;;;27.16;53.39
49122;BME280;35529;44.342;25.944;2022-07-29T06:19:00;100816.13;;;27.29;53.25
49122;BME280;35529;44.342;25.944;2022-07-29T06:21:26;100812.63;;;27.42;52.61
49122;BME280;35529;44.342;25.944;2022-07-29T06:23:52;100815.16;;;27.52;52.14
49122;BME280;35529;44.342;25.944;2022-07-29T06:26:18;100815.97;;;27.67;52.17
49122;BME280;35529;44.342;25.944;2022-07-29T06:28:44;100817.56;;;27.82;51.37
49122;BME280;35529;44.342;25.944;2022-07-29T06:31:10;100815.53;;;27.87;51.59
49122;BME280;35529;44.342;25.944;2022-07-29T06:33:36;100816.06;;;27.89;51.51
49122;BME280;35529;44.342;25.944;2022-07-29T06:36:03;100812.41;;;27.94;50.57
49122;BME280;35529;44.342;25.944;2022-07-29T06:38:30;100818.69;;;27.95;50.37
49122;BME280;35529;44.342;25.944;2022-07-29T06:40:56;100814.94;;;28.04;50.22
49122;BME280;35529;44.342;25.944;2022-07-29T06:43:34;100810.78;;;28.07;50.20
49122;BME280;35529;44.342;25.944;2022-07-29T06:46:06;100812.91;;;28.10;49.56
49122;BME280;35529;44.342;25.944;2022-07-29T06:48:33;100821.88;;;28.24;49.62
49122;BME280;35529;44.342;25.944;2022-07-29T06:50:59;100815.66;;;28.33;48.78
49122;BME280;35529;44.342;25.944;2022-07-29T06:53:26;100813.88;;;28.28;48.70
49122;BME280;35529;44.342;25.944;2022-07-29T06:55:52;100815.19;;;28.31;48.71
49122;BME280;35529;44.342;25.944;2022-07-29T06:58:18;100809.03;;;28.48;48.21
49122;BME280;35529;44.342;25.944;2022-07-29T07:00:46;100817.31;;;28.56;48.04
49122;BME280;35529;44.342;25.944;2022-07-29T07:03:13;100812.63;;;28.71;46.56
49122;BME280;35529;44.342;25.944;2022-07-29T07:05:40;100809.00;;;28.84;46.99
49122;BME280;35529;44.342;25.944;2022-07-29T07:08:06;100815.78;;;28.87;46.36
49122;BME280;35529;44.342;25.944;2022-07-29T07:10:32;100803.28;;;28.95;45.63
49122;BME280;35529;44.342;25.944;2022-07-29T07:12:59;100801.25;;;29.09;45.63
49122;BME280;35529;44.342;25.944;2022-07-29T07:15:25;100803.22;;;29.17;45.34
49122;BME280;35529;44.342;25.944;2022-07-29T07:17:51;100808.25;;;29.24;45.69
49122;BME280;35529;44.342;25.944;2022-07-29T07:20:17;100798.72;;;29.21;45.04
49122;BME280;35529;44.342;25.944;2022-07-29T07:22:43;100798.56;;;29.18;44.55
49122;BME280;35529;44.342;25.944;2022-07-29T07:25:10;100806.31;;;29.24;44.14
49122;BME280;35529;44.342;25.944;2022-07-29T07:27:36;100805.91;;;29.31;43.50
49122;BME280;35529;44.342;25.944;2022-07-29T07:30:03;100795.81;;;29.40;42.89
49122;BME280;35529;44.342;25.944;2022-07-29T07:32:31;100813.19;;;29.45;42.69
49122;BME280;35529;44.342;25.944;2022-07-29T07:34:58;100807.09;;;29.48;42.56
49122;BME280;35529;44.342;25.944;2022-07-29T07:37:24;100799.72;;;29.57;43.04
49122;BME280;35529;44.342;25.944;2022-07-29T07:39:51;100817.13;;;29.70;43.28
49122;BME280;35529;44.342;25.944;2022-07-29T07:42:17;100802.53;;;29.83;43.00
49122;BME280;35529;44.342;25.944;2022-07-29T07:44:43;100810.06;;;29.77;42.95
49122;BME280;35529;44.342;25.944;2022-07-29T07:47:11;100801.84;;;29.69;43.08
49122;BME280;35529;44.342;25.944;2022-07-29T07:49:38;100806.31;;;29.56;42.92
49122;BME280;35529;44.342;25.944;2022-07-29T07:52:04;100805.78;;;29.36;42.94
49122;BME280;35529;44.342;25.944;2022-07-29T07:54:30;100810.97;;;29.24;43.17
49122;BME280;35529;44.342;25.944;2022-07-29T07:56:56;100810.22;;;29.32;43.54
49122;BME280;35529;44.342;25.944;2022-07-29T07:59:23;100802.06;;;29.41;43.61
49122;BME280;35529;44.342;25.944;2022-07-29T08:01:49;100802.59;;;29.52;42.91
49122;BME280;35529;44.342;25.944;2022-07-29T08:04:15;100807.13;;;29.56;42.59
49122;BME280;35529;44.342;25.944;2022-07-29T08:06:41;100813.72;;;29.64;42.80
49122;BME280;35529;44.342;25.944;2022-07-29T08:09:07;100805.03;;;29.71;42.52
49122;BME280;35529;44.342;25.944;2022-07-29T08:11:34;100816.03;;;29.80;41.91
49122;BME280;35529;44.342;25.944;2022-07-29T08:14:00;100810.47;;;30.02;41.98
49122;BME280;35529;44.342;25.944;2022-07-29T08:16:27;100813.53;;;30.36;40.98
49122;BME280;35529;44.342;25.944;2022-07-29T08:18:53;100804.84;;;30.60;40.58
49122;BME280;35529;44.342;25.944;2022-07-29T08:21:22;100799.16;;;30.83;39.96
49122;BME280;35529;44.342;25.944;2022-07-29T08:23:49;100803.78;;;31.08;39.42
49122;BME280;35529;44.342;25.944;2022-07-29T08:26:18;100785.81;;;31.20;38.57
49122;BME280;35529;44.342;25.944;2022-07-29T08:28:45;100792.38;;;31.36;38.40
49122;BME280;35529;44.342;25.944;2022-07-29T08:31:14;100798.63;;;31.46;37.84
49122;BME280;35529;44.342;25.944;2022-07-29T08:33:41;100799.28;;;31.42;37.20
49122;BME280;35529;44.342;25.944;2022-07-29T08:36:07;100790.44;;;31.37;36.20
49122;BME280;35529;44.342;25.944;2022-07-29T08:38:33;100794.19;;;31.32;36.69
49122;BME280;35529;44.342;25.944;2022-07-29T08:41:00;100795.63;;;31.30;37.39
49122;BME280;35529;44.342;25.944;2022-07-29T08:43:29;100791.72;;;31.39;37.54
49122;BME280;35529;44.342;25.944;2022-07-29T08:45:55;100797.00;;;31.45;37.49
49122;BME280;35529;44.342;25.944;2022-07-29T08:48:22;100785.38;;;31.48;37.51
49122;BME280;35529;44.342;25.944;2022-07-29T08:50:50;100793.22;;;31.58;36.39
49122;BME280;35529;44.342;25.944;2022-07-29T08:53:18;100785.59;;;31.72;36.00
49122;BME280;35529;44.342;25.944;2022-07-29T08:55:45;100778.09;;;31.82;35.53
49122;BME280;35529;44.342;25.944;2022-07-29T08:58:12;100780.84;;;31.82;35.62
49122;BME280;35529;44.342;25.944;2022-07-29T09:00:43;100769.56;;;31.74;35.70
49122;BME280;35529;44.342;25.944;2022-07-29T09:03:12;100770.72;;;31.73;36.31
49122;BME280;35529;44.342;25.944;2022-07-29T09:05:46;100765.44;;;31.68;35.06
49122;BME280;35529;44.342;25.944;2022-07-29T09:08:13;100775.00;;;31.62;35.44
49122;BME280;35529;44.342;25.944;2022-07-29T09:10:40;100774.00;;;31.67;35.33
49122;BME280;35529;44.342;25.944;2022-07-29T09:13:06;100769.75;;;31.69;35.34
49122;BME280;35529;44.342;25.944;2022-07-29T09:15:32;100781.22;;;31.71;34.21
49122;BME280;35529;44.342;25.944;2022-07-29T09:17:58;100778.75;;;31.79;34.42
49122;BME280;35529;44.342;25.944;2022-07-29T09:20:26;100772.19;;;31.92;34.49
49122;BME280;35529;44.342;25.944;2022-07-29T09:23:12;100773.13;;;31.96;34.05
49122;BME280;35529;44.342;25.944;2022-07-29T09:25:39;100767.84;;;31.91;34.00
49122;BME280;35529;44.342;25.944;2022-07-29T09:28:13;100768.13;;;31.98;33.74
49122;BME280;35529;44.342;25.944;2022-07-29T09:30:50;100773.56;;;32.07;34.04
49122;BME280;35529;44.342;25.944;2022-07-29T09:33:17;100759.13;;;32.10;33.21
49122;BME280;35529;44.342;25.944;2022-07-29T09:35:43;100771.84;;;32.15;33.58
49122;BME280;35529;44.342;25.944;2022-07-29T09:38:13;100764.13;;;32.17;33.60
49122;BME280;35529;44.342;25.944;2022-07-29T09:40:39;100768.59;;;32.21;33.85
49122;BME280;35529;44.342;25.944;2022-07-29T09:43:12;100767.84;;;32.33;32.84
49122;BME280;35529;44.342;25.944;2022-07-29T09:45:39;100770.97;;;32.44;33.21
49122;BME280;35529;44.342;25.944;2022-07-29T09:48:15;100765.22;;;32.37;31.52
49122;BME280;35529;44.342;25.944;2022-07-29T09:50:42;100754.84;;;32.21;31.56
49122;BME280;35529;44.342;25.944;2022-07-29T09:53:09;100751.56;;;32.28;32.13
49122;BME280;35529;44.342;25.944;2022-07-29T09:55:51;100759.16;;;32.31;32.46
49122;BME280;35529;44.342;25.944;2022-07-29T09:58:18;100753.31;;;32.33;32.64
49122;BME280;35529;44.342;25.944;2022-07-29T10:00:45;100752.75;;;32.39;32.61
49122;BME280;35529;44.342;25.944;2022-07-29T10:03:12;100754.63;;;32.48;32.45
49122;BME280;35529;44.342;25.944;2022-07-29T10:05:38;100748.09;;;32.52;32.11
49122;BME280;35529;44.342;25.944;2022-07-29T10:08:05;100748.56;;;32.54;32.10
49122;BME280;35529;44.342;25.944;2022-07-29T10:10:32;100750.88;;;32.65;32.61
49122;BME280;35529;44.342;25.944;2022-07-29T10:13:03;100752.41;;;32.74;31.70
49122;BME280;35529;44.342;25.944;2022-07-29T10:15:30;100743.47;;;32.90;32.06
49122;BME280;35529;44.342;25.944;2022-07-29T10:17:58;100745.09;;;33.03;31.38
49122;BME280;35529;44.342;25.944;2022-07-29T10:20:25;100738.47;;;33.04;30.83
49122;BME280;35529;44.342;25.944;2022-07-29T10:22:52;100736.63;;;33.08;31.16
49122;BME280;35529;44.342;25.944;2022-07-29T10:25:18;100733.88;;;33.08;31.64
49122;BME280;35529;44.342;25.944;2022-07-29T10:27:45;100727.94;;;33.06;31.87
49122;BME280;35529;44.342;25.944;2022-07-29T10:30:13;100730.69;;;33.06;31.31
49122;BME280;35529;44.342;25.944;2022-07-29T10:43:35;100709.69;;;32.89;31.84
49122;BME280;35529;44.342;25.944;2022-07-29T10:46:03;100706.50;;;32.87;31.14
49122;BME280;35529;44.342;25.944;2022-07-29T10:48:30;100702.69;;;32.92;30.93
49122;BME280;35529;44.342;25.944;2022-07-29T10:51:00;100696.75;;;33.02;30.84
49122;BME280;35529;44.342;25.944;2022-07-29T10:53:46;100698.34;;;33.03;30.36
49122;BME280;35529;44.342;25.944;2022-07-29T10:56:26;100694.44;;;33.17;30.89
49122;BME280;35529;44.342;25.944;2022-07-29T10:59:38;100686.78;;;33.35;30.56
49122;BME280;35529;44.342;25.944;2022-07-29T11:01:39;100692.72;;;33.49;30.60
49122;BME280;35529;44.342;25.944;2022-07-29T11:04:05;100687.06;;;33.58;30.42
49122;BME280;35529;44.342;25.944;2022-07-29T11:09:19;100687.16;;;33.62;30.93
49122;BME280;35529;44.342;25.944;2022-07-29T11:11:45;100696.19;;;33.74;30.89
49122;BME280;35529;44.342;25.944;2022-07-29T11:14:12;100685.50;;;33.73;30.52
49122;BME280;35529;44.342;25.944;2022-07-29T11:17:23;100676.56;;;33.76;30.94
49122;BME280;35529;44.342;25.944;2022-07-29T11:19:25;100672.91;;;33.72;29.86
49122;BME280;35529;44.342;25.944;2022-07-29T11:21:51;100674.44;;;33.57;29.92
49122;BME280;35529;44.342;25.944;2022-07-29T11:24:22;100661.38;;;33.54;30.51
49122;BME280;35529;44.342;25.944;2022-07-29T11:29:37;100657.69;;;33.90;29.78
49122;BME280;35529;44.342;25.944;2022-07-29T11:32:09;100666.53;;;33.96;29.88
49122;BME280;35529;44.342;25.944;2022-07-29T11:34:36;100662.88;;;33.92;29.13
49122;BME280;35529;44.342;25.944;2022-07-29T11:39:41;100663.06;;;33.99;29.41
49122;BME280;35529;44.342;25.944;2022-07-29T11:47:40;100640.03;;;34.36;28.30
49122;BME280;35529;44.342;25.944;2022-07-29T11:50:11;100650.72;;;34.37;28.46
49122;BME280;35529;44.342;25.944;2022-07-29T11:52:42;100641.63;;;34.37;27.53
49122;BME280;35529;44.342;25.944;2022-07-29T11:55:10;100640.31;;;34.31;28.02
49122;BME280;35529;44.342;25.944;2022-07-29T11:57:36;100642.34;;;34.34;28.49
49122;BME280;35529;44.342;25.944;2022-07-29T12:00:06;100636.75;;;34.46;27.92
49122;BME280;35529;44.342;25.944;2022-07-29T12:02:40;100639.59;;;34.66;27.87
49122;BME280;35529;44.342;25.944;2022-07-29T12:05:08;100632.91;;;34.83;27.58
49122;BME280;35529;44.342;25.944;2022-07-29T12:07:34;100623.34;;;34.96;27.77
49122;BME280;35529;44.342;25.944;2022-07-29T12:10:01;100630.28;;;35.06;27.52
49122;BME280;35529;44.342;25.944;2022-07-29T12:12:27;100635.59;;;35.15;27.68
49122;BME280;35529;44.342;25.944;2022-07-29T12:14:53;100631.44;;;35.05;27.23
49122;BME280;35529;44.342;25.944;2022-07-29T12:17:31;100636.22;;;34.88;27.52
49122;BME280;35529;44.342;25.944;2022-07-29T12:20:02;100615.19;;;34.84;27.91
49122;BME280;35529;44.342;25.944;2022-07-29T12:22:36;100614.66;;;34.94;27.95
49122;BME280;35529;44.342;25.944;2022-07-29T12:25:12;100609.22;;;34.98;27.56
49122;BME280;35529;44.342;25.944;2022-07-29T12:27:41;100599.34;;;34.97;27.64
49122;BME280;35529;44.342;25.944;2022-07-29T12:30:09;100606.25;;;35.06;27.63
49122;BME280;35529;44.342;25.944;2022-07-29T12:32:36;100593.81;;;34.97;27.11
49122;BME280;35529;44.342;25.944;2022-07-29T12:35:04;100600.50;;;34.96;27.30
49122;BME280;35529;44.342;25.944;2022-07-29T12:37:32;100590.19;;;34.93;27.47
49122;BME280;35529;44.342;25.944;2022-07-29T12:39:59;100589.53;;;34.99;27.20
49122;BME280;35529;44.342;25.944;2022-07-29T12:42:25;100582.88;;;35.20;26.87
49122;BME280;35529;44.342;25.944;2022-07-29T12:44:52;100578.91;;;35.37;27.25
49122;BME280;35529;44.342;25.944;2022-07-29T12:47:19;100570.47;;;35.49;26.60
49122;BME280;35529;44.342;25.944;2022-07-29T12:49:45;100567.34;;;35.51;26.52
49122;BME280;35529;44.342;25.944;2022-07-29T12:52:28;100568.66;;;35.57;26.31
49122;BME280;35529;44.342;25.944;2022-07-29T12:54:55;100561.66;;;35.63;26.21
49122;BME280;35529;44.342;25.944;2022-07-29T12:57:21;100554.22;;;35.67;26.02
49122;BME280;35529;44.342;25.944;2022-07-29T13:02:26;100556.31;;;35.94;25.97
49122;BME280;35529;44.342;25.944;2022-07-29T13:04:56;100554.59;;;36.08;25.73
49122;BME280;35529;44.342;25.944;2022-07-29T13:07:24;100547.84;;;36.29;25.64
49122;BME280;35529;44.342;25.944;2022-07-29T13:09:50;100548.47;;;36.72;25.04
49122;BME280;35529;44.342;25.944;2022-07-29T13:12:16;100543.84;;;37.11;24.71
49122;BME280;35529;44.342;25.944;2022-07-29T13:19:48;100536.59;;;38.67;21.72
49122;BME280;35529;44.342;25.944;2022-07-29T13:22:18;100550.44;;;39.37;21.62
49122;BME280;35529;44.342;25.944;2022-07-29T13:24:45;100532.69;;;40.07;21.59
49122;BME280;35529;44.342;25.944;2022-07-29T13:27:13;100539.75;;;40.62;20.38
49122;BME280;35529;44.342;25.944;2022-07-29T13:29:39;100543.34;;;40.59;20.54